Lester Prairie, MN (55354)

4:53 AM CDT on July 21, 2017 (GMT -0500)
Coldwater Crossing | | Change Station
Active Advisory: Special Statement

Elev 963 ft 44.89 °N, 93.90 °W | Updated 40 seconds ago

Fog
Fog
67.5 °F
Feels Like 67.5 °F
N
0.0
Wind Variable Wind from East
Gusts 0.0 mph

Today
High -- | Low -- °F
--% Chance of Precip.
Yesterday
High -- | Low -- °F
Precip. -- in
Pressure 29.91 in
Visibility 0.5 miles
Clouds Overcast 100 ft
Dew Point 67 °F
Humidity 99%
Rainfall 0.00 in
Snow Depth Not available.
5:50 AM 8:54 PM
Waning Crescent, 6% visible
METAR KGYL 210936Z AUTO 08003KT 1/2SM FG OVC001 19/19 A2991 RMK AO2 T01880190
Pressure 29.91 in
Visibility 0.5 miles
Clouds Overcast 100 ft
Dew Point 67 °F
Humidity 99%
Rainfall 0.00 in
Snow Depth Not available.
5:50 AM 8:54 PM
Waning Crescent, 6% visible
METAR KGYL 210936Z AUTO 08003KT 1/2SM FG OVC001 19/19 A2991 RMK AO2 T01880190

Get Your Daily Forecast Email!

Thanks for signing up!

Be on the lookout for a verification email in your inbox.

You'll start receiving severe weather alerts in your inbox..

×

10-Day Weather Forecast

Almanac

Astronomy

Jul. 21, 2017 Rise Set
Actual Time
Civil Twilight
Nautical Twilight
Astronomical Twilight
Moon
Length of Visible Light
Length of Day
Tomorrow will be .
, % of the Moon is Illuminated

Today's Extremes

State Highs State Lows

Community

WunderPhotos

Category 6

Welcome to Category 6. This is the collective home for Weather Underground's featured writeups by Dr. Jeff Masters (right), Bob Henson (left), Chris Burt, and other regular contributors.

Nearby

Air Quality

  Air Quality AQ Index Pollutant
Not available.

Snow Depth

Station Depth Elevation

Earthquake Activity

City Distance Mag. Time & Date
Minimum magnitude displayed is 2.5.

Coastal Water Temperatures

Place Temperature

Stations

Nearby Weather Stations

Station Location Temp. Windchill Dew Point Humidity Wind Precip. Elev Updated Type
                   

Watches & Warnings

Special Statement
Issued: 3:46 AM CDT Jul. 21, 2017 – National Weather Service

... Areas of dense fog early this morning...

.Local areas of dense fog are expected through early this morning.
Please use your head lights and drive with caution.


Jrb

346 am CDT Fri Jul 21 2017

... Areas of dense fog early this morning...

.Local areas of dense fog are expected through early this morning.
Please use your head lights and drive with caution.


Jrb